Air Navigation Services of Czech Republic
Airport: LKMT Updated:  20.02.2017 21:03:21  UTC
 METAR LKMT 20.02. 21:00 ...
METAR LKMT 202100Z 21016KT 9999 -RA BKN034 OVC042 06/02 Q1012 NOSIG=
 TAF LKMT 20.02. 17:00 ...
TAF LKMT 201700Z 2018/2200 22014KT 9999 BKN025      TEMPO 2018/2116 23014G24KT      TEMPO 2018/2200 4000 RA BKN012      PROB40 TEMPO 2021/2104 24018G30KT 2000 RA BKN008=